sensor_id;sensor_type;location;lat;lon;timestamp;temperature;humidity
12682;DHT22;6405;59.208;18.216;2023-05-17T00:02:01;10.30;99.90
12682;DHT22;6405;59.208;18.216;2023-05-17T00:04:27;10.20;99.90
12682;DHT22;6405;59.208;18.216;2023-05-17T00:06:54;10.30;99.90
12682;DHT22;6405;59.208;18.216;2023-05-17T00:09:20;10.30;99.90
12682;DHT22;6405;59.208;18.216;2023-05-17T00:11:45;10.30;99.90
12682;DHT22;6405;59.208;18.216;2023-05-17T00:14:11;10.30;99.90
12682;DHT22;6405;59.208;18.216;2023-05-17T00:16:37;10.30;99.90
12682;DHT22;6405;59.208;18.216;2023-05-17T00:19:03;10.30;99.90
12682;DHT22;6405;59.208;18.216;2023-05-17T00:21:28;10.20;99.90
12682;DHT22;6405;59.208;18.216;2023-05-17T00:23:54;10.20;99.90
12682;DHT22;6405;59.208;18.216;2023-05-17T00:26:19;10.20;99.90
12682;DHT22;6405;59.208;18.216;2023-05-17T00:28:45;10.20;99.90
12682;DHT22;6405;59.208;18.216;2023-05-17T00:31:11;10.20;99.90
12682;DHT22;6405;59.208;18.216;2023-05-17T00:33:37;10.30;99.90
12682;DHT22;6405;59.208;18.216;2023-05-17T00:36:03;10.20;99.90
12682;DHT22;6405;59.208;18.216;2023-05-17T00:38:28;10.20;99.90
12682;DHT22;6405;59.208;18.216;2023-05-17T00:40:54;10.20;99.90
12682;DHT22;6405;59.208;18.216;2023-05-17T00:43:20;10.20;99.90
12682;DHT22;6405;59.208;18.216;2023-05-17T00:45:45;10.20;99.90
12682;DHT22;6405;59.208;18.216;2023-05-17T00:48:13;10.20;99.90
12682;DHT22;6405;59.208;18.216;2023-05-17T00:50:40;10.20;99.90
12682;DHT22;6405;59.208;18.216;2023-05-17T00:53:06;10.20;99.90
12682;DHT22;6405;59.208;18.216;2023-05-17T00:55:32;10.30;99.90
12682;DHT22;6405;59.208;18.216;2023-05-17T00:57:58;10.30;99.90
12682;DHT22;6405;59.208;18.216;2023-05-17T01:00:24;10.20;99.90
12682;DHT22;6405;59.208;18.216;2023-05-17T01:02:50;10.20;99.90
12682;DHT22;6405;59.208;18.216;2023-05-17T01:05:17;10.20;99.90
12682;DHT22;6405;59.208;18.216;2023-05-17T01:07:42;10.20;99.90
12682;DHT22;6405;59.208;18.216;2023-05-17T01:10:08;10.20;99.90
12682;DHT22;6405;59.208;18.216;2023-05-17T01:15:30;10.20;99.90
12682;DHT22;6405;59.208;18.216;2023-05-17T01:18:08;10.20;99.90
12682;DHT22;6405;59.208;18.216;2023-05-17T01:20:40;10.20;99.90
12682;DHT22;6405;59.208;18.216;2023-05-17T01:25:57;10.10;99.90
12682;DHT22;6405;59.208;18.216;2023-05-17T01:28:25;10.10;99.90
12682;DHT22;6405;59.208;18.216;2023-05-17T01:30:52;10.10;99.90
12682;DHT22;6405;59.208;18.216;2023-05-17T01:33:19;10.10;99.90
12682;DHT22;6405;59.208;18.216;2023-05-17T01:35:45;10.10;99.90
12682;DHT22;6405;59.208;18.216;2023-05-17T01:38:11;10.10;99.90
12682;DHT22;6405;59.208;18.216;2023-05-17T01:40:44;10.10;99.90
12682;DHT22;6405;59.208;18.216;2023-05-17T01:43:20;10.10;99.90
12682;DHT22;6405;59.208;18.216;2023-05-17T01:45:59;10.10;99.90
12682;DHT22;6405;59.208;18.216;2023-05-17T01:48:39;10.00;99.90
12682;DHT22;6405;59.208;18.216;2023-05-17T01:51:08;10.00;99.90
12682;DHT22;6405;59.208;18.216;2023-05-17T01:53:44;10.00;99.90
12682;DHT22;6405;59.208;18.216;2023-05-17T01:56:15;10.00;99.90
12682;DHT22;6405;59.208;18.216;2023-05-17T01:58:46;10.00;99.90
12682;DHT22;6405;59.208;18.216;2023-05-17T02:01:14;9.90;99.90
12682;DHT22;6405;59.208;18.216;2023-05-17T02:03:41;9.90;99.90
12682;DHT22;6405;59.208;18.216;2023-05-17T02:06:06;9.90;99.90
12682;DHT22;6405;59.208;18.216;2023-05-17T02:08:32;9.90;99.90
12682;DHT22;6405;59.208;18.216;2023-05-17T02:10:57;9.90;99.90
12682;DHT22;6405;59.208;18.216;2023-05-17T02:13:23;9.90;99.90
12682;DHT22;6405;59.208;18.216;2023-05-17T02:15:49;9.90;99.90
12682;DHT22;6405;59.208;18.216;2023-05-17T02:18:15;9.90;99.90
12682;DHT22;6405;59.208;18.216;2023-05-17T02:20:40;9.90;99.90
12682;DHT22;6405;59.208;18.216;2023-05-17T02:23:06;9.90;99.90
12682;DHT22;6405;59.208;18.216;2023-05-17T02:25:32;9.90;99.90
12682;DHT22;6405;59.208;18.216;2023-05-17T02:27:57;9.90;99.90
12682;DHT22;6405;59.208;18.216;2023-05-17T02:30:23;9.90;99.90
12682;DHT22;6405;59.208;18.216;2023-05-17T02:32:50;9.90;99.90
12682;DHT22;6405;59.208;18.216;2023-05-17T02:35:16;10.00;99.90
12682;DHT22;6405;59.208;18.216;2023-05-17T02:37:42;9.90;99.90
12682;DHT22;6405;59.208;18.216;2023-05-17T02:40:08;9.90;99.90
12682;DHT22;6405;59.208;18.216;2023-05-17T02:42:35;9.90;99.90
12682;DHT22;6405;59.208;18.216;2023-05-17T02:45:01;9.90;99.90
12682;DHT22;6405;59.208;18.216;2023-05-17T02:47:27;9.90;99.90
12682;DHT22;6405;59.208;18.216;2023-05-17T02:49:53;10.00;99.90
12682;DHT22;6405;59.208;18.216;2023-05-17T02:52:19;10.00;99.90
12682;DHT22;6405;59.208;18.216;2023-05-17T02:54:45;10.00;99.90
12682;DHT22;6405;59.208;18.216;2023-05-17T02:57:12;10.10;99.90
12682;DHT22;6405;59.208;18.216;2023-05-17T02:59:37;10.10;99.90
12682;DHT22;6405;59.208;18.216;2023-05-17T03:02:03;10.10;99.90
12682;DHT22;6405;59.208;18.216;2023-05-17T03:04:29;10.10;99.90
12682;DHT22;6405;59.208;18.216;2023-05-17T03:06:55;10.20;99.90
12682;DHT22;6405;59.208;18.216;2023-05-17T03:09:20;10.20;99.90
12682;DHT22;6405;59.208;18.216;2023-05-17T03:11:47;10.20;99.90
12682;DHT22;6405;59.208;18.216;2023-05-17T03:14:12;10.30;99.90
12682;DHT22;6405;59.208;18.216;2023-05-17T03:16:38;10.30;99.90
12682;DHT22;6405;59.208;18.216;2023-05-17T03:19:05;10.30;99.90
12682;DHT22;6405;59.208;18.216;2023-05-17T03:21:30;10.30;99.90
12682;DHT22;6405;59.208;18.216;2023-05-17T03:23:56;10.30;99.90
12682;DHT22;6405;59.208;18.216;2023-05-17T03:26:22;10.30;99.90
12682;DHT22;6405;59.208;18.216;2023-05-17T03:28:48;10.30;99.90
12682;DHT22;6405;59.208;18.216;2023-05-17T03:31:14;10.30;99.90
12682;DHT22;6405;59.208;18.216;2023-05-17T03:33:41;10.30;99.90
12682;DHT22;6405;59.208;18.216;2023-05-17T03:36:08;10.30;99.90
12682;DHT22;6405;59.208;18.216;2023-05-17T03:38:33;10.30;99.90
12682;DHT22;6405;59.208;18.216;2023-05-17T03:41:00;10.30;99.90
12682;DHT22;6405;59.208;18.216;2023-05-17T03:43:25;10.20;99.90
12682;DHT22;6405;59.208;18.216;2023-05-17T03:45:51;10.20;99.90
12682;DHT22;6405;59.208;18.216;2023-05-17T03:48:17;10.20;99.90
12682;DHT22;6405;59.208;18.216;2023-05-17T03:50:42;10.20;99.90
12682;DHT22;6405;59.208;18.216;2023-05-17T03:53:08;10.30;99.90
12682;DHT22;6405;59.208;18.216;2023-05-17T03:55:34;10.30;99.90
12682;DHT22;6405;59.208;18.216;2023-05-17T03:58:00;10.30;99.90
12682;DHT22;6405;59.208;18.216;2023-05-17T04:00:25;10.40;99.90
12682;DHT22;6405;59.208;18.216;2023-05-17T04:02:51;10.40;99.90
12682;DHT22;6405;59.208;18.216;2023-05-17T04:05:17;10.50;99.90
12682;DHT22;6405;59.208;18.216;2023-05-17T04:07:43;10.50;99.90
12682;DHT22;6405;59.208;18.216;2023-05-17T04:10:09;10.60;99.90
12682;DHT22;6405;59.208;18.216;2023-05-17T04:12:35;10.60;99.90
12682;DHT22;6405;59.208;18.216;2023-05-17T04:15:01;10.60;99.90
12682;DHT22;6405;59.208;18.216;2023-05-17T04:17:27;10.60;99.90
12682;DHT22;6405;59.208;18.216;2023-05-17T04:19:53;10.60;99.90
12682;DHT22;6405;59.208;18.216;2023-05-17T04:22:21;10.60;99.90
12682;DHT22;6405;59.208;18.216;2023-05-17T04:24:47;10.60;99.90
12682;DHT22;6405;59.208;18.216;2023-05-17T04:27:13;10.70;99.90
12682;DHT22;6405;59.208;18.216;2023-05-17T04:29:38;10.70;99.90
12682;DHT22;6405;59.208;18.216;2023-05-17T04:32:06;10.80;99.90
12682;DHT22;6405;59.208;18.216;2023-05-17T04:34:32;10.80;99.90
12682;DHT22;6405;59.208;18.216;2023-05-17T04:36:58;10.90;99.90
12682;DHT22;6405;59.208;18.216;2023-05-17T04:39:24;11.00;99.90
12682;DHT22;6405;59.208;18.216;2023-05-17T04:41:50;11.00;99.90
12682;DHT22;6405;59.208;18.216;2023-05-17T04:44:16;11.10;99.90
12682;DHT22;6405;59.208;18.216;2023-05-17T04:46:42;11.10;99.90
12682;DHT22;6405;59.208;18.216;2023-05-17T04:49:08;11.10;99.90
12682;DHT22;6405;59.208;18.216;2023-05-17T04:51:34;11.10;99.90
12682;DHT22;6405;59.208;18.216;2023-05-17T04:54:00;11.10;99.90
12682;DHT22;6405;59.208;18.216;2023-05-17T04:56:28;11.00;99.90
12682;DHT22;6405;59.208;18.216;2023-05-17T04:58:53;11.00;99.90
12682;DHT22;6405;59.208;18.216;2023-05-17T05:01:19;10.90;99.90
12682;DHT22;6405;59.208;18.216;2023-05-17T05:03:45;10.90;99.90
12682;DHT22;6405;59.208;18.216;2023-05-17T05:06:10;10.80;99.90
12682;DHT22;6405;59.208;18.216;2023-05-17T05:08:36;10.70;99.90
12682;DHT22;6405;59.208;18.216;2023-05-17T05:11:03;10.60;99.90
12682;DHT22;6405;59.208;18.216;2023-05-17T05:13:28;10.50;99.90
12682;DHT22;6405;59.208;18.216;2023-05-17T05:15:54;10.40;99.90
12682;DHT22;6405;59.208;18.216;2023-05-17T05:18:20;10.40;99.90
12682;DHT22;6405;59.208;18.216;2023-05-17T05:20:47;10.40;99.90
12682;DHT22;6405;59.208;18.216;2023-05-17T05:23:13;10.30;99.90
12682;DHT22;6405;59.208;18.216;2023-05-17T05:25:39;10.30;99.90
12682;DHT22;6405;59.208;18.216;2023-05-17T05:28:05;10.20;99.90
12682;DHT22;6405;59.208;18.216;2023-05-17T05:30:31;10.20;99.90
12682;DHT22;6405;59.208;18.216;2023-05-17T05:32:57;10.00;99.90
12682;DHT22;6405;59.208;18.216;2023-05-17T05:35:23;9.90;99.90
12682;DHT22;6405;59.208;18.216;2023-05-17T05:37:58;9.80;99.90
12682;DHT22;6405;59.208;18.216;2023-05-17T05:40:24;9.80;99.90
12682;DHT22;6405;59.208;18.216;2023-05-17T05:42:49;9.80;99.90
12682;DHT22;6405;59.208;18.216;2023-05-17T05:45:15;9.80;99.90
12682;DHT22;6405;59.208;18.216;2023-05-17T05:47:41;9.80;99.90
12682;DHT22;6405;59.208;18.216;2023-05-17T05:50:07;9.70;99.90
12682;DHT22;6405;59.208;18.216;2023-05-17T05:52:33;9.70;99.90
12682;DHT22;6405;59.208;18.216;2023-05-17T05:54:59;9.80;99.90
12682;DHT22;6405;59.208;18.216;2023-05-17T05:57:25;9.80;99.90
12682;DHT22;6405;59.208;18.216;2023-05-17T05:59:50;9.80;99.90
12682;DHT22;6405;59.208;18.216;2023-05-17T06:02:16;9.90;99.90
12682;DHT22;6405;59.208;18.216;2023-05-17T06:04:42;10.10;99.90
12682;DHT22;6405;59.208;18.216;2023-05-17T06:07:07;10.30;99.90
12682;DHT22;6405;59.208;18.216;2023-05-17T06:09:33;10.60;99.90
12682;DHT22;6405;59.208;18.216;2023-05-17T06:11:59;10.70;99.90
12682;DHT22;6405;59.208;18.216;2023-05-17T06:14:25;10.90;99.90
12682;DHT22;6405;59.208;18.216;2023-05-17T06:16:51;11.00;99.90
12682;DHT22;6405;59.208;18.216;2023-05-17T06:19:16;11.10;99.90
12682;DHT22;6405;59.208;18.216;2023-05-17T06:21:42;11.10;99.90
12682;DHT22;6405;59.208;18.216;2023-05-17T06:24:08;11.00;99.90
12682;DHT22;6405;59.208;18.216;2023-05-17T06:26:34;11.10;99.90
12682;DHT22;6405;59.208;18.216;2023-05-17T06:29:00;11.10;99.90
12682;DHT22;6405;59.208;18.216;2023-05-17T06:31:25;11.20;99.90
12682;DHT22;6405;59.208;18.216;2023-05-17T06:33:51;11.10;99.90
12682;DHT22;6405;59.208;18.216;2023-05-17T06:36:16;11.40;99.90
12682;DHT22;6405;59.208;18.216;2023-05-17T06:38:42;11.40;99.90
12682;DHT22;6405;59.208;18.216;2023-05-17T06:41:08;11.50;99.90
12682;DHT22;6405;59.208;18.216;2023-05-17T06:43:33;11.60;99.90
12682;DHT22;6405;59.208;18.216;2023-05-17T06:45:59;11.90;99.90
12682;DHT22;6405;59.208;18.216;2023-05-17T06:48:25;12.00;99.90
12682;DHT22;6405;59.208;18.216;2023-05-17T06:50:50;12.10;99.90
12682;DHT22;6405;59.208;18.216;2023-05-17T06:53:16;12.10;99.90
12682;DHT22;6405;59.208;18.216;2023-05-17T06:55:42;11.90;99.90
12682;DHT22;6405;59.208;18.216;2023-05-17T06:58:08;11.90;99.90
12682;DHT22;6405;59.208;18.216;2023-05-17T07:00:34;12.10;99.90
12682;DHT22;6405;59.208;18.216;2023-05-17T07:02:59;11.90;99.90
12682;DHT22;6405;59.208;18.216;2023-05-17T07:05:25;12.00;99.90
12682;DHT22;6405;59.208;18.216;2023-05-17T07:07:53;12.10;99.90
12682;DHT22;6405;59.208;18.216;2023-05-17T07:10:19;12.30;99.90
12682;DHT22;6405;59.208;18.216;2023-05-17T07:12:46;12.50;99.90
12682;DHT22;6405;59.208;18.216;2023-05-17T07:15:11;12.60;99.90
12682;DHT22;6405;59.208;18.216;2023-05-17T07:17:37;12.70;99.90
12682;DHT22;6405;59.208;18.216;2023-05-17T07:20:04;12.70;99.90
12682;DHT22;6405;59.208;18.216;2023-05-17T07:22:30;12.60;99.90
12682;DHT22;6405;59.208;18.216;2023-05-17T07:24:56;12.60;99.90
12682;DHT22;6405;59.208;18.216;2023-05-17T07:27:21;12.80;99.90
12682;DHT22;6405;59.208;18.216;2023-05-17T07:29:47;12.80;99.90
12682;DHT22;6405;59.208;18.216;2023-05-17T07:32:13;13.00;99.90
12682;DHT22;6405;59.208;18.216;2023-05-17T07:34:40;13.00;99.90
12682;DHT22;6405;59.208;18.216;2023-05-17T07:37:06;13.30;99.90
12682;DHT22;6405;59.208;18.216;2023-05-17T07:39:32;13.30;99.90
12682;DHT22;6405;59.208;18.216;2023-05-17T07:41:57;13.30;99.90
12682;DHT22;6405;59.208;18.216;2023-05-17T07:44:23;13.40;99.90
12682;DHT22;6405;59.208;18.216;2023-05-17T07:46:49;13.60;99.90
12682;DHT22;6405;59.208;18.216;2023-05-17T07:49:15;13.50;99.90
12682;DHT22;6405;59.208;18.216;2023-05-17T07:51:40;13.40;99.90
12682;DHT22;6405;59.208;18.216;2023-05-17T07:54:06;13.30;99.90
12682;DHT22;6405;59.208;18.216;2023-05-17T07:56:32;13.10;99.90
12682;DHT22;6405;59.208;18.216;2023-05-17T07:58:58;13.10;99.90
12682;DHT22;6405;59.208;18.216;2023-05-17T08:01:24;13.00;99.90
12682;DHT22;6405;59.208;18.216;2023-05-17T08:03:50;12.80;99.90
12682;DHT22;6405;59.208;18.216;2023-05-17T08:06:16;12.40;99.90
12682;DHT22;6405;59.208;18.216;2023-05-17T08:08:42;12.30;99.90
12682;DHT22;6405;59.208;18.216;2023-05-17T08:11:09;12.40;99.90
12682;DHT22;6405;59.208;18.216;2023-05-17T08:13:35;12.30;99.90
12682;DHT22;6405;59.208;18.216;2023-05-17T08:16:01;12.20;99.90
12682;DHT22;6405;59.208;18.216;2023-05-17T08:18:29;12.20;99.90
12682;DHT22;6405;59.208;18.216;2023-05-17T08:20:54;11.80;99.90
12682;DHT22;6405;59.208;18.216;2023-05-17T08:23:21;11.10;99.90
12682;DHT22;6405;59.208;18.216;2023-05-17T08:25:46;10.70;99.90
12682;DHT22;6405;59.208;18.216;2023-05-17T08:28:12;10.30;99.90
12682;DHT22;6405;59.208;18.216;2023-05-17T08:30:38;10.20;99.90
12682;DHT22;6405;59.208;18.216;2023-05-17T08:33:04;10.00;99.90
12682;DHT22;6405;59.208;18.216;2023-05-17T08:35:30;9.70;99.90
12682;DHT22;6405;59.208;18.216;2023-05-17T08:37:57;9.70;99.90
12682;DHT22;6405;59.208;18.216;2023-05-17T08:40:23;9.60;99.90
12682;DHT22;6405;59.208;18.216;2023-05-17T08:42:52;9.50;99.90
12682;DHT22;6405;59.208;18.216;2023-05-17T08:45:18;9.40;99.90
12682;DHT22;6405;59.208;18.216;2023-05-17T08:47:44;9.30;99.90
12682;DHT22;6405;59.208;18.216;2023-05-17T08:50:11;9.10;99.90
12682;DHT22;6405;59.208;18.216;2023-05-17T08:52:39;9.20;99.90
12682;DHT22;6405;59.208;18.216;2023-05-17T08:55:06;9.30;99.90
12682;DHT22;6405;59.208;18.216;2023-05-17T08:57:33;9.30;99.90
12682;DHT22;6405;59.208;18.216;2023-05-17T09:00:02;9.40;99.90
12682;DHT22;6405;59.208;18.216;2023-05-17T09:02:31;9.40;99.90
12682;DHT22;6405;59.208;18.216;2023-05-17T09:04:58;9.20;99.90
12682;DHT22;6405;59.208;18.216;2023-05-17T09:07:24;9.20;99.90
12682;DHT22;6405;59.208;18.216;2023-05-17T09:09:54;9.10;99.90
12682;DHT22;6405;59.208;18.216;2023-05-17T09:12:21;9.00;99.90
12682;DHT22;6405;59.208;18.216;2023-05-17T09:14:48;8.90;99.90
12682;DHT22;6405;59.208;18.216;2023-05-17T09:17:20;8.90;99.90
12682;DHT22;6405;59.208;18.216;2023-05-17T09:19:47;8.80;99.90
12682;DHT22;6405;59.208;18.216;2023-05-17T09:22:19;8.80;99.90
12682;DHT22;6405;59.208;18.216;2023-05-17T09:24:45;8.80;99.90
12682;DHT22;6405;59.208;18.216;2023-05-17T09:27:15;8.50;99.90
12682;DHT22;6405;59.208;18.216;2023-05-17T09:29:43;8.50;99.90
12682;DHT22;6405;59.208;18.216;2023-05-17T09:32:11;8.50;99.90
12682;DHT22;6405;59.208;18.216;2023-05-17T09:34:39;8.50;99.90
12682;DHT22;6405;59.208;18.216;2023-05-17T09:37:15;8.60;99.90
12682;DHT22;6405;59.208;18.216;2023-05-17T09:39:42;8.60;99.90
12682;DHT22;6405;59.208;18.216;2023-05-17T09:42:10;8.60;99.90
12682;DHT22;6405;59.208;18.216;2023-05-17T09:44:55;8.60;99.90
12682;DHT22;6405;59.208;18.216;2023-05-17T09:47:27;8.60;99.90
12682;DHT22;6405;59.208;18.216;2023-05-17T09:49:58;8.60;99.90
12682;DHT22;6405;59.208;18.216;2023-05-17T09:52:25;8.40;99.90
12682;DHT22;6405;59.208;18.216;2023-05-17T09:54:57;8.60;99.90
12682;DHT22;6405;59.208;18.216;2023-05-17T09:57:25;8.60;99.90
12682;DHT22;6405;59.208;18.216;2023-05-17T09:59:54;8.70;99.90
12682;DHT22;6405;59.208;18.216;2023-05-17T10:02:30;8.50;99.90
12682;DHT22;6405;59.208;18.216;2023-05-17T10:04:57;8.50;99.90
12682;DHT22;6405;59.208;18.216;2023-05-17T10:07:25;8.50;99.90
12682;DHT22;6405;59.208;18.216;2023-05-17T10:09:54;8.50;99.90
12682;DHT22;6405;59.208;18.216;2023-05-17T10:12:22;8.70;99.90
12682;DHT22;6405;59.208;18.216;2023-05-17T10:14:48;8.80;99.90
12682;DHT22;6405;59.208;18.216;2023-05-17T10:17:14;9.00;99.90
12682;DHT22;6405;59.208;18.216;2023-05-17T10:19:42;9.60;99.90
12682;DHT22;6405;59.208;18.216;2023-05-17T10:22:08;9.80;99.90
12682;DHT22;6405;59.208;18.216;2023-05-17T10:24:35;9.50;99.90
12682;DHT22;6405;59.208;18.216;2023-05-17T10:27:05;9.30;99.90
12682;DHT22;6405;59.208;18.216;2023-05-17T10:29:32;9.40;99.90
12682;DHT22;6405;59.208;18.216;2023-05-17T10:32:02;9.30;99.90
12682;DHT22;6405;59.208;18.216;2023-05-17T10:34:30;9.50;99.90
12682;DHT22;6405;59.208;18.216;2023-05-17T10:36:58;9.70;99.90
12682;DHT22;6405;59.208;18.216;2023-05-17T10:39:25;10.00;99.90
12682;DHT22;6405;59.208;18.216;2023-05-17T10:41:52;9.80;99.90
12682;DHT22;6405;59.208;18.216;2023-05-17T10:44:19;9.90;99.90
12682;DHT22;6405;59.208;18.216;2023-05-17T10:46:55;9.90;99.90
12682;DHT22;6405;59.208;18.216;2023-05-17T10:49:29;9.80;99.90
12682;DHT22;6405;59.208;18.216;2023-05-17T10:52:30;9.90;99.90
12682;DHT22;6405;59.208;18.216;2023-05-17T10:54:58;9.90;99.90
12682;DHT22;6405;59.208;18.216;2023-05-17T10:57:35;10.20;99.90
12682;DHT22;6405;59.208;18.216;2023-05-17T11:00:02;10.10;99.90
12682;DHT22;6405;59.208;18.216;2023-05-17T11:02:30;10.20;99.90
12682;DHT22;6405;59.208;18.216;2023-05-17T11:04:57;10.20;99.90
12682;DHT22;6405;59.208;18.216;2023-05-17T11:07:26;9.70;99.90
12682;DHT22;6405;59.208;18.216;2023-05-17T11:12:36;9.60;99.90
12682;DHT22;6405;59.208;18.216;2023-05-17T11:15:09;9.50;99.90
12682;DHT22;6405;59.208;18.216;2023-05-17T11:22:41;9.20;99.90
12682;DHT22;6405;59.208;18.216;2023-05-17T11:25:12;9.20;99.90
12682;DHT22;6405;59.208;18.216;2023-05-17T11:27:46;9.30;99.90
12682;DHT22;6405;59.208;18.216;2023-05-17T11:35:25;9.30;99.90
12682;DHT22;6405;59.208;18.216;2023-05-17T11:37:53;9.30;99.90
12682;DHT22;6405;59.208;18.216;2023-05-17T11:40:37;9.10;99.90
12682;DHT22;6405;59.208;18.216;2023-05-17T11:43:14;9.00;99.90
12682;DHT22;6405;59.208;18.216;2023-05-17T11:45:48;9.00;99.90
12682;DHT22;6405;59.208;18.216;2023-05-17T11:48:15;8.90;99.90
12682;DHT22;6405;59.208;18.216;2023-05-17T11:50:43;8.70;99.90
12682;DHT22;6405;59.208;18.216;2023-05-17T11:53:10;8.60;99.90
12682;DHT22;6405;59.208;18.216;2023-05-17T11:55:46;8.70;99.90
12682;DHT22;6405;59.208;18.216;2023-05-17T11:58:14;8.60;99.90
12682;DHT22;6405;59.208;18.216;2023-05-17T12:00:41;8.60;99.90
12682;DHT22;6405;59.208;18.216;2023-05-17T12:03:21;8.60;99.90
12682;DHT22;6405;59.208;18.216;2023-05-17T12:05:49;8.90;99.90
12682;DHT22;6405;59.208;18.216;2023-05-17T12:08:19;9.00;99.90
12682;DHT22;6405;59.208;18.216;2023-05-17T12:10:50;9.00;99.90
12682;DHT22;6405;59.208;18.216;2023-05-17T12:13:17;9.10;99.90
12682;DHT22;6405;59.208;18.216;2023-05-17T12:16:03;8.90;99.90
12682;DHT22;6405;59.208;18.216;2023-05-17T12:21:07;8.90;99.90
12682;DHT22;6405;59.208;18.216;2023-05-17T12:23:37;8.90;99.90
12682;DHT22;6405;59.208;18.216;2023-05-17T12:26:08;8.90;99.90
12682;DHT22;6405;59.208;18.216;2023-05-17T12:28:35;8.80;99.90
12682;DHT22;6405;59.208;18.216;2023-05-17T12:31:03;8.50;99.90
12682;DHT22;6405;59.208;18.216;2023-05-17T12:33:31;8.50;99.90
12682;DHT22;6405;59.208;18.216;2023-05-17T12:35:58;8.40;99.90
12682;DHT22;6405;59.208;18.216;2023-05-17T12:38:24;8.30;99.90
12682;DHT22;6405;59.208;18.216;2023-05-17T12:40:53;8.30;99.90
12682;DHT22;6405;59.208;18.216;2023-05-17T12:43:22;8.10;99.90
12682;DHT22;6405;59.208;18.216;2023-05-17T12:45:49;8.00;99.90
12682;DHT22;6405;59.208;18.216;2023-05-17T12:48:15;8.10;99.90
12682;DHT22;6405;59.208;18.216;2023-05-17T12:50:41;8.00;99.90
12682;DHT22;6405;59.208;18.216;2023-05-17T12:53:10;8.00;99.90
12682;DHT22;6405;59.208;18.216;2023-05-17T12:55:36;7.90;99.90
12682;DHT22;6405;59.208;18.216;2023-05-17T12:58:02;7.80;99.90
12682;DHT22;6405;59.208;18.216;2023-05-17T13:00:29;7.90;99.90
12682;DHT22;6405;59.208;18.216;2023-05-17T13:02:55;7.80;99.90
12682;DHT22;6405;59.208;18.216;2023-05-17T13:05:21;7.80;99.90
12682;DHT22;6405;59.208;18.216;2023-05-17T13:07:47;7.70;99.90
12682;DHT22;6405;59.208;18.216;2023-05-17T13:10:26;7.70;99.90
12682;DHT22;6405;59.208;18.216;2023-05-17T13:12:56;7.80;99.90
12682;DHT22;6405;59.208;18.216;2023-05-17T13:15:30;7.80;99.90
12682;DHT22;6405;59.208;18.216;2023-05-17T13:17:56;7.70;99.90
12682;DHT22;6405;59.208;18.216;2023-05-17T13:20:22;7.60;99.90
12682;DHT22;6405;59.208;18.216;2023-05-17T13:22:48;7.50;99.90
12682;DHT22;6405;59.208;18.216;2023-05-17T13:25:14;7.50;99.90
12682;DHT22;6405;59.208;18.216;2023-05-17T13:27:40;7.50;99.90
12682;DHT22;6405;59.208;18.216;2023-05-17T13:30:15;7.70;99.90
12682;DHT22;6405;59.208;18.216;2023-05-17T13:32:41;7.80;99.90
12682;DHT22;6405;59.208;18.216;2023-05-17T13:35:07;7.80;99.90
12682;DHT22;6405;59.208;18.216;2023-05-17T13:37:34;7.70;99.90
12682;DHT22;6405;59.208;18.216;2023-05-17T13:40:01;7.80;99.90
12682;DHT22;6405;59.208;18.216;2023-05-17T13:42:26;7.70;99.90
12682;DHT22;6405;59.208;18.216;2023-05-17T13:44:52;7.70;99.90
12682;DHT22;6405;59.208;18.216;2023-05-17T13:47:17;7.80;99.90
12682;DHT22;6405;59.208;18.216;2023-05-17T13:49:43;7.90;99.90
12682;DHT22;6405;59.208;18.216;2023-05-17T13:52:09;7.90;99.90
12682;DHT22;6405;59.208;18.216;2023-05-17T13:54:37;8.00;99.90
12682;DHT22;6405;59.208;18.216;2023-05-17T13:57:06;7.90;99.90
12682;DHT22;6405;59.208;18.216;2023-05-17T13:59:32;7.80;99.90
12682;DHT22;6405;59.208;18.216;2023-05-17T14:01:58;7.80;99.90
12682;DHT22;6405;59.208;18.216;2023-05-17T14:04:24;7.70;99.90
12682;DHT22;6405;59.208;18.216;2023-05-17T14:06:50;7.70;99.90
12682;DHT22;6405;59.208;18.216;2023-05-17T14:09:16;7.70;99.90
12682;DHT22;6405;59.208;18.216;2023-05-17T14:11:41;7.60;99.90
12682;DHT22;6405;59.208;18.216;2023-05-17T14:14:07;7.50;99.90
12682;DHT22;6405;59.208;18.216;2023-05-17T14:16:33;7.50;99.90
12682;DHT22;6405;59.208;18.216;2023-05-17T14:18:59;7.50;99.90
12682;DHT22;6405;59.208;18.216;2023-05-17T14:21:25;7.50;99.90
12682;DHT22;6405;59.208;18.216;2023-05-17T14:23:50;7.40;99.90
12682;DHT22;6405;59.208;18.216;2023-05-17T14:26:16;7.40;99.90
12682;DHT22;6405;59.208;18.216;2023-05-17T14:28:42;7.30;99.90
12682;DHT22;6405;59.208;18.216;2023-05-17T14:31:09;7.20;99.90
12682;DHT22;6405;59.208;18.216;2023-05-17T14:33:35;7.10;99.90
12682;DHT22;6405;59.208;18.216;2023-05-17T14:36:01;7.10;99.90
12682;DHT22;6405;59.208;18.216;2023-05-17T14:38:28;7.10;99.90
12682;DHT22;6405;59.208;18.216;2023-05-17T14:40:54;7.20;99.90
12682;DHT22;6405;59.208;18.216;2023-05-17T14:43:19;7.30;99.90
12682;DHT22;6405;59.208;18.216;2023-05-17T14:45:45;7.40;99.90
12682;DHT22;6405;59.208;18.216;2023-05-17T14:48:11;7.30;99.90
12682;DHT22;6405;59.208;18.216;2023-05-17T14:50:36;7.40;99.90
12682;DHT22;6405;59.208;18.216;2023-05-17T14:53:02;7.30;99.90
12682;DHT22;6405;59.208;18.216;2023-05-17T14:55:27;7.30;99.90
12682;DHT22;6405;59.208;18.216;2023-05-17T14:57:55;7.30;99.90
12682;DHT22;6405;59.208;18.216;2023-05-17T15:00:22;7.40;99.90
12682;DHT22;6405;59.208;18.216;2023-05-17T15:02:48;7.40;99.90
12682;DHT22;6405;59.208;18.216;2023-05-17T15:05:14;7.40;99.90
12682;DHT22;6405;59.208;18.216;2023-05-17T15:07:39;7.40;99.90
12682;DHT22;6405;59.208;18.216;2023-05-17T15:10:05;7.50;99.90
12682;DHT22;6405;59.208;18.216;2023-05-17T15:12:31;7.50;99.90
12682;DHT22;6405;59.208;18.216;2023-05-17T15:14:57;7.30;99.90
12682;DHT22;6405;59.208;18.216;2023-05-17T15:17:23;7.40;99.90
12682;DHT22;6405;59.208;18.216;2023-05-17T15:19:49;7.40;99.90
12682;DHT22;6405;59.208;18.216;2023-05-17T15:22:15;7.40;99.90
12682;DHT22;6405;59.208;18.216;2023-05-17T15:24:43;7.40;99.90
12682;DHT22;6405;59.208;18.216;2023-05-17T15:27:09;7.50;99.90
12682;DHT22;6405;59.208;18.216;2023-05-17T15:29:37;7.40;99.90
12682;DHT22;6405;59.208;18.216;2023-05-17T15:32:05;7.50;99.90
12682;DHT22;6405;59.208;18.216;2023-05-17T15:34:31;7.40;99.90
12682;DHT22;6405;59.208;18.216;2023-05-17T15:36:57;7.50;99.90
12682;DHT22;6405;59.208;18.216;2023-05-17T15:39:23;7.70;99.90
12682;DHT22;6405;59.208;18.216;2023-05-17T15:41:48;7.60;99.90
12682;DHT22;6405;59.208;18.216;2023-05-17T15:44:14;7.60;99.90
12682;DHT22;6405;59.208;18.216;2023-05-17T15:46:40;7.50;99.90
12682;DHT22;6405;59.208;18.216;2023-05-17T15:49:06;7.70;99.90
12682;DHT22;6405;59.208;18.216;2023-05-17T15:51:32;7.70;99.90
12682;DHT22;6405;59.208;18.216;2023-05-17T15:53:57;7.80;99.90
12682;DHT22;6405;59.208;18.216;2023-05-17T15:56:23;7.80;99.90
12682;DHT22;6405;59.208;18.216;2023-05-17T15:58:49;7.90;99.90
12682;DHT22;6405;59.208;18.216;2023-05-17T16:01:15;8.00;99.90